Time;durP1;ratioP1;P1;durP2;ratioP2;P2;SDS_P1;SDS_P2;PMS_P1;PMS_P2;Temp;Humidity;BMP_temperature;BMP_pressure;BME280_temperature;BME280_humidity;BME280_pressure;Samples;Min_cycle;Max_cycle;Signal;HPM_P1;HPM_P2
2021/09/27 00:00:30;;;;;;;;;;;;;;;10.24;100.00;93367.75;2116014;28;19960;-81
2021/09/27 00:01:32;;;;;;;;;;;;;;;10.31;100.00;93373.00;2116489;28;19911;-79
2021/09/27 00:02:33;;;;;;;;;;;;;;;10.22;100.00;93367.38;2116039;28;19908;-82
2021/09/27 00:03:34;;;;;;;;;;;;;;;10.18;100.00;93370.09;2115930;28;19911;-79
2021/09/27 00:04:35;;;;;;;;;;;;;;;10.16;100.00;93364.44;2116479;28;19912;-81
2021/09/27 00:05:36;;;;;;;;;;;;;;;10.02;100.00;93368.09;2107443;28;19920;-80
2021/09/27 00:06:37;;;;;;;;;;;;;;;10.04;100.00;93360.41;2107405;28;19999;-82
2021/09/27 00:07:39;;;;;;;;;;;;;;;10.10;100.00;93366.06;2107100;28;20742;-81
2021/09/27 00:08:39;;;;;;;;;;;;;;;10.00;100.00;93359.72;2115801;28;19988;-80
2021/09/27 00:09:40;;;;;;;;;;;;;;;9.97;100.00;93362.47;2116406;28;19908;-81
2021/09/27 00:10:46;;;;;;;;;;;;;;;9.95;100.00;93362.09;2107272;28;19966;-80
2021/09/27 00:11:47;;;;;;;;;;;;;;;9.89;100.00;93358.38;2108366;28;19907;-81
2021/09/27 00:12:49;;;;;;;;;;;;;;;9.86;100.00;93359.19;2107618;28;20475;-80
2021/09/27 00:13:52;;;;;;;;;;;;;;;9.88;100.00;93357.63;2107674;28;19957;-82
2021/09/27 00:14:53;;;;;;;;;;;;;;;9.82;100.00;93357.31;2115825;28;20026;-80
2021/09/27 00:15:55;;;;;;;;;;;;;;;9.87;100.00;93366.78;2116389;28;19980;-80
2021/09/27 00:16:56;;;;;;;;;;;;;;;9.84;100.00;93359.59;2116511;27;19914;-80
2021/09/27 00:17:57;;;;;;;;;;;;;;;9.83;100.00;93355.41;2115735;28;19960;-81
2021/09/27 00:18:59;;;;;;;;;;;;;;;9.77;100.00;93365.78;2107353;28;19961;-81
2021/09/27 00:19:59;;;;;;;;;;;;;;;9.69;100.00;93363.63;2115841;28;19915;-82
2021/09/27 00:21:03;;;;;;;;;;;;;;;9.76;100.00;93361.59;2107153;28;20349;-79
2021/09/27 00:22:07;;;;;;;;;;;;;;;9.77;100.00;93365.03;2103340;27;19918;-80
2021/09/27 00:23:08;;;;;;;;;;;;;;;9.63;100.00;93363.31;2124264;27;19908;-81
2021/09/27 00:24:09;;;;;;;;;;;;;;;9.69;100.00;93359.03;2124101;27;19990;-81
2021/09/27 00:25:10;;;;;;;;;;;;;;;9.84;100.00;93359.59;2107336;28;19908;-82
2021/09/27 00:26:11;;;;;;;;;;;;;;;9.59;100.00;93362.63;2107456;28;19934;-79
2021/09/27 00:27:12;;;;;;;;;;;;;;;9.58;100.00;93369.88;2124334;27;19907;-81
2021/09/27 00:28:13;;;;;;;;;;;;;;;9.58;100.00;93372.53;2123870;27;20043;-81
2021/09/27 00:29:14;;;;;;;;;;;;;;;9.57;100.00;93363.03;2119057;27;20113;-80
2021/09/27 00:30:15;;;;;;;;;;;;;;;9.54;100.00;93365.75;2119400;27;19926;-78
2021/09/27 00:31:16;;;;;;;;;;;;;;;9.47;100.00;93366.59;2115885;28;19908;-78
2021/09/27 00:32:17;;;;;;;;;;;;;;;9.53;100.00;93365.00;2124126;27;19908;-78
2021/09/27 00:33:20;;;;;;;;;;;;;;;9.53;100.00;93361.56;2124162;27;20001;-82
2021/09/27 00:34:21;;;;;;;;;;;;;;;9.51;100.00;93371.88;2115502;28;20010;-80
2021/09/27 00:35:23;;;;;;;;;;;;;;;9.39;100.00;93357.16;2115783;28;19985;-81
2021/09/27 00:36:24;;;;;;;;;;;;;;;9.39;100.00;93362.50;2123999;27;20033;-78
2021/09/27 00:37:25;;;;;;;;;;;;;;;9.42;100.00;93360.94;2107152;28;20294;-80
2021/09/27 00:38:26;;;;;;;;;;;;;;;9.37;100.00;93356.06;2115608;28;19912;-80
2021/09/27 00:39:26;;;;;;;;;;;;;;;9.36;100.00;93355.31;2124192;27;19993;-81
2021/09/27 00:40:29;;;;;;;;;;;;;;;9.28;100.00;93356.56;2124658;27;19946;-80
2021/09/27 00:41:30;;;;;;;;;;;;;;;9.17;100.00;93353.25;2124829;27;20367;-81
2021/09/27 00:42:31;;;;;;;;;;;;;;;9.17;100.00;93353.25;2115389;28;20419;-81
2021/09/27 00:43:34;;;;;;;;;;;;;;;9.23;100.00;93357.00;2115690;28;19953;-81
2021/09/27 00:44:36;;;;;;;;;;;;;;;9.24;100.00;93353.19;2124583;27;19911;-79
2021/09/27 00:45:39;;;;;;;;;;;;;;;9.22;100.00;93355.47;2124038;27;19908;-78
2021/09/27 00:46:40;;;;;;;;;;;;;;;9.18;100.00;93354.78;2124123;27;20069;-79
2021/09/27 00:47:41;;;;;;;;;;;;;;;9.23;100.00;93349.75;2123610;27;20363;-80
2021/09/27 00:48:43;;;;;;;;;;;;;;;9.23;100.00;93357.75;2124150;27;19911;-82
2021/09/27 00:49:44;;;;;;;;;;;;;;;9.23;100.00;93341.75;2124048;27;19910;-80
2021/09/27 00:50:48;;;;;;;;;;;;;;;9.23;100.00;93346.34;2119287;27;19918;-79
2021/09/27 00:51:48;;;;;;;;;;;;;;;9.21;100.00;93343.31;2115649;28;20404;-81
2021/09/27 00:52:50;;;;;;;;;;;;;;;9.21;100.00;93338.72;2116153;28;19908;-80
2021/09/27 00:53:52;;;;;;;;;;;;;;;9.20;100.00;93336.47;2115454;28;19998;-79
2021/09/27 00:54:54;;;;;;;;;;;;;;;9.03;100.00;93344.28;2109364;28;19915;-79
2021/09/27 00:55:55;;;;;;;;;;;;;;;9.14;100.00;93338.84;2115613;28;20411;-81
2021/09/27 00:57:03;;;;;;;;;;;;;;;9.15;100.00;93334.25;2115641;27;19907;-83
2021/09/27 00:58:04;;;;;;;;;;;;;;;9.20;100.00;93336.47;2116338;28;19953;-80
2021/09/27 00:59:05;;;;;;;;;;;;;;;9.26;100.00;93334.84;2116100;28;19915;-84
2021/09/27 01:00:08;;;;;;;;;;;;;;;9.25;100.00;93334.09;2115107;28;19911;-79
2021/09/27 01:01:08;;;;;;;;;;;;;;;9.28;100.00;93338.63;2107292;28;20388;-80
2021/09/27 01:02:10;;;;;;;;;;;;;;;9.26;100.00;93335.63;2107138;28;19943;-80
2021/09/27 01:03:11;;;;;;;;;;;;;;;9.23;100.00;93333.75;2107103;28;19953;-81
2021/09/27 01:04:12;;;;;;;;;;;;;;;9.28;100.00;93337.88;2098723;28;19975;-80
2021/09/27 01:05:15;;;;;;;;;;;;;;;9.24;100.00;93342.50;2098623;28;20372;-83
2021/09/27 01:06:26;;;;;;;;;;;;;;;9.26;100.00;93345.53;2107389;27;19908;-80
2021/09/27 01:07:30;;;;;;;;;;;;;;;9.27;100.00;93339.81;2123943;27;19990;-82
2021/09/27 01:08:49;;;;;;;;;;;;;;;9.32;100.00;93334.00;2115490;28;19918;-82
2021/09/27 01:10:01;;;;;;;;;;;;;;;9.32;100.00;93342.00;2117853;27;20362;-80
2021/09/27 01:11:11;;;;;;;;;;;;;;;9.29;100.00;93350.81;2117081;27;19908;-81
2021/09/27 01:12:18;;;;;;;;;;;;;;;9.29;100.00;93337.47;2123945;27;19908;-80
2021/09/27 01:13:35;;;;;;;;;;;;;;;9.26;100.00;93343.63;2123773;27;19914;-79
2021/09/27 01:14:42;;;;;;;;;;;;;;;9.13;100.00;93344.53;2124026;27;19914;-82
2021/09/27 01:15:49;;;;;;;;;;;;;;;9.06;100.00;93340.81;2123780;27;19911;-80
2021/09/27 01:16:55;;;;;;;;;;;;;;;9.00;100.00;93352.31;2116177;27;20018;-81
2021/09/27 01:18:11;;;;;;;;;;;;;;;8.95;100.00;93347.44;2116022;27;19953;-80
2021/09/27 01:19:15;;;;;;;;;;;;;;;8.96;100.00;93346.28;2124044;27;20383;-82
2021/09/27 01:20:22;;;;;;;;;;;;;;;9.03;100.00;93348.88;2114523;28;19912;-79
2021/09/27 01:21:47;;;;;;;;;;;;;;;8.86;100.00;93345.25;2109877;27;19914;-80
2021/09/27 01:22:56;;;;;;;;;;;;;;;8.87;100.00;93344.13;2123780;27;20006;-80
2021/09/27 01:24:16;;;;;;;;;;;;;;;8.85;100.00;93349.06;2116519;27;19912;-79
2021/09/27 01:25:34;;;;;;;;;;;;;;;8.78;100.00;93346.47;2117757;27;19918;-82
2021/09/27 01:26:34;;;;;;;;;;;;;;;8.80;100.00;93344.19;2117627;27;19961;-80
2021/09/27 01:27:45;;;;;;;;;;;;;;;8.76;100.00;93335.47;2123717;27;20347;-80
2021/09/27 01:28:58;;;;;;;;;;;;;;;8.77;100.00;93343.06;2123567;27;19952;-80
2021/09/27 01:30:17;;;;;;;;;;;;;;;8.70;100.00;93337.06;2120532;27;19907;-80
2021/09/27 01:31:38;;;;;;;;;;;;;;;8.74;100.00;93340.47;2115686;28;19923;-81
2021/09/27 01:32:50;;;;;;;;;;;;;;;8.66;100.00;93336.34;2115824;28;20368;-80
2021/09/27 01:34:04;;;;;;;;;;;;;;;8.51;100.00;93338.41;2115067;28;19911;-81
2021/09/27 01:35:04;;;;;;;;;;;;;;;8.66;100.00;93339.03;2115231;28;19931;-82
2021/09/27 01:36:12;;;;;;;;;;;;;;;8.49;100.00;93340.72;2106724;28;19915;-79
2021/09/27 01:37:13;;;;;;;;;;;;;;;8.50;100.00;93337.66;2100370;28;19915;-80
2021/09/27 01:38:25;;;;;;;;;;;;;;;8.53;100.00;93336.84;2115724;27;20010;-80
2021/09/27 01:39:33;;;;;;;;;;;;;;;8.49;100.00;93336.13;2124248;27;20371;-78
2021/09/27 01:40:46;;;;;;;;;;;;;;;8.41;100.00;93348.00;2120582;27;19908;-78
2021/09/27 01:42:06;;;;;;;;;;;;;;;8.49;100.00;93335.38;2117972;27;20681;-80
2021/09/27 01:43:14;;;;;;;;;;;;;;;8.50;100.00;93336.88;2123665;27;19941;-82
2021/09/27 01:44:14;;;;;;;;;;;;;;;8.47;100.00;93330.47;2116011;27;20625;-80
2021/09/27 01:45:35;;;;;;;;;;;;;;;8.49;100.00;93336.13;2123563;27;19986;-81
2021/09/27 01:46:47;;;;;;;;;;;;;;;8.39;100.00;93341.59;2109875;27;19904;-79
2021/09/27 01:47:55;;;;;;;;;;;;;;;8.40;100.00;93338.50;2124124;27;19907;-78
2021/09/27 01:49:09;;;;;;;;;;;;;;;8.48;100.00;93336.53;2124208;27;19907;-79
2021/09/27 01:50:13;;;;;;;;;;;;;;;8.51;100.00;93341.06;2124350;27;19907;-78
2021/09/27 01:51:14;;;;;;;;;;;;;;;8.54;100.00;93340.28;2114625;28;19976;-82
2021/09/27 01:52:20;;;;;;;;;;;;;;;8.39;100.00;93339.69;2110089;28;19967;-79
2021/09/27 01:53:36;;;;;;;;;;;;;;;8.45;100.00;93337.31;2121063;27;19911;-81
2021/09/27 01:54:57;;;;;;;;;;;;;;;8.47;100.00;93332.34;2123472;27;19911;-80
2021/09/27 01:56:06;;;;;;;;;;;;;;;8.48;100.00;93326.66;2106813;28;19916;-83
2021/09/27 01:57:25;;;;;;;;;;;;;;;8.50;100.00;93329.66;2115013;28;19911;-80
2021/09/27 01:58:36;;;;;;;;;;;;;;;8.56;100.00;93332.66;2108774;28;19919;-82
2021/09/27 01:59:46;;;;;;;;;;;;;;;8.58;100.00;93322.34;2111984;27;19908;-81
2021/09/27 02:00:52;;;;;;;;;;;;;;;8.55;100.00;93334.53;2116048;27;19919;-80
2021/09/27 02:02:03;;;;;;;;;;;;;;;8.45;100.00;93326.69;2123577;27;19911;-79
2021/09/27 02:03:10;;;;;;;;;;;;;;;8.52;100.00;93335.34;2123425;27;19936;-80
2021/09/27 02:04:24;;;;;;;;;;;;;;;8.48;100.00;93334.63;2123614;27;20007;-82
2021/09/27 02:07:39;;;;;;;;;;;;;;;8.48;100.00;93337.31;2148859;27;20113;-79
2021/09/27 02:09:05;;;;;;;14.10;5.10;;;;;;;8.35;100.00;93338.16;2148372;27;20001;-81
2021/09/27 02:10:57;;;;;;;7.30;5.28;;;;;;;8.37;100.00;93339.31;2139086;27;20463;-80
2021/09/27 02:12:05;;;;;;;6.22;5.63;;;;;;;8.36;100.00;93337.00;2121938;27;20387;-79
2021/09/27 02:13:16;;;;;;;6.00;5.30;;;;;;;8.36;100.00;93332.44;2130231;27;20064;-79
2021/09/27 02:14:36;;;;;;;8.35;5.57;;;;;;;8.39;100.00;93330.94;2123142;27;20129;-78
2021/09/27 02:15:46;;;;;;;;;;;;;;;8.32;100.00;93329.81;2136678;27;20030;-82
2021/09/27 02:16:51;;;;;;;7.93;5.32;;;;;;;8.33;100.00;93330.56;2130196;27;20495;-82
2021/09/27 02:18:17;;;;;;;7.78;6.57;;;;;;;8.27;100.00;93335.56;2131648;27;20472;-79
2021/09/27 02:19:29;;;;;;;8.23;5.50;;;;;;;8.22;100.00;93329.91;2146761;27;20464;-79
2021/09/27 02:20:38;;;;;;;6.95;5.90;;;;;;;8.26;100.00;93333.31;2140262;27;20109;-80
2021/09/27 02:21:44;;;;;;;6.80;6.10;;;;;;;8.26;100.00;93328.72;2130256;27;20113;-80
2021/09/27 02:22:50;;;;;;;6.97;5.25;;;;;;;8.22;100.00;93327.25;2122434;27;20115;-79
2021/09/27 02:24:04;;;;;;;6.20;5.03;;;;;;;8.28;100.00;93336.31;2122683;27;20027;-79
2021/09/27 02:25:17;;;;;;;7.18;6.47;;;;;;;8.30;100.00;93326.03;2117850;27;20020;-80
2021/09/27 02:26:19;;;;;;;7.20;5.40;;;;;;;8.22;100.00;93328.00;2116556;27;20067;-79
2021/09/27 02:27:20;;;;;;;8.32;6.38;;;;;;;8.16;100.00;93326.16;2113194;28;20134;-82
2021/09/27 02:28:23;;;;;;;6.57;5.78;;;;;;;8.20;100.00;93330.28;2113283;27;20115;-79
2021/09/27 02:29:24;;;;;;;6.38;5.75;;;;;;;8.11;100.00;93331.91;2122014;27;20026;-80
2021/09/27 02:30:40;;;;;;;6.10;5.50;;;;;;;8.16;100.00;93332.22;2121742;28;20065;-79
2021/09/27 02:32:00;;;;;;;7.68;5.40;;;;;;;8.12;100.00;93334.19;2130153;27;20054;-78
2021/09/27 02:33:29;;;;;;;8.77;5.45;;;;;;;7.97;100.00;93340.78;2138664;27;20102;-80
2021/09/27 02:34:43;;;;;;;7.15;5.03;;;;;;;8.04;100.00;93335.41;2128409;27;20030;-81
2021/09/27 02:36:13;;;;;;;6.85;5.18;;;;;;;7.90;100.00;93336.28;2134127;27;20023;-79
2021/09/27 02:37:33;;;;;;;6.22;5.15;;;;;;;7.92;100.00;93336.63;2133554;27;20034;-78
2021/09/27 02:38:58;;;;;;;8.50;5.55;;;;;;;8.01;100.00;93331.63;2131726;27;20030;-80
2021/09/27 02:40:08;;;;;;;5.55;4.82;;;;;;;8.02;100.00;93337.69;2125013;27;20027;-80
2021/09/27 02:41:21;;;;;;;6.88;5.70;;;;;;;8.06;100.00;93338.41;2115413;27;20028;-81
2021/09/27 02:42:30;;;;;;;6.70;5.45;;;;;;;7.97;100.00;93330.88;2131977;27;20027;-83
2021/09/27 02:43:31;;;;;;;9.15;5.63;;;;;;;7.80;100.00;93327.22;2124044;27;20464;-78
2021/09/27 02:44:32;;;;;;;8.95;5.70;;;;;;;7.83;100.00;93333.66;2128789;27;20075;-79
2021/09/27 02:45:34;;;;;;;6.82;6.00;;;;;;;7.89;100.00;93326.75;2122913;27;20027;-77
2021/09/27 02:46:43;;;;;;;7.28;5.88;;;;;;;7.74;100.00;93334.13;2130264;27;20019;-81
2021/09/27 02:47:49;;;;;;;6.15;5.55;;;;;;;7.76;100.00;93331.06;2139593;27;20046;-79
2021/09/27 02:48:58;;;;;;;8.88;5.50;;;;;;;7.80;100.00;93334.44;2146530;27;20092;-79
2021/09/27 02:50:03;;;;;;;7.03;5.07;;;;;;;7.75;100.00;93338.28;2141929;27;20018;-80
2021/09/27 02:51:06;;;;;;;8.38;6.22;;;;;;;7.76;100.00;93323.81;2122925;27;20080;-79
2021/09/27 02:52:08;;;;;;;7.55;5.38;;;;;;;7.76;100.00;93331.06;2116958;27;20133;-80
2021/09/27 02:53:11;;;;;;;6.22;5.10;;;;;;;7.74;100.00;93333.34;2125454;27;20027;-78
2021/09/27 02:54:18;;;;;;;6.80;5.63;;;;;;;7.81;100.00;93339.38;2134866;27;20018;-79
2021/09/27 02:55:29;;;;;;;6.03;5.43;;;;;;;7.92;100.00;93336.63;2124338;27;20027;-80
2021/09/27 02:56:46;;;;;;;8.13;5.93;;;;;;;7.88;100.00;93329.81;2114284;28;20050;-78
2021/09/27 02:58:16;;;;;;;6.38;5.30;;;;;;;7.78;100.00;93336.75;2116186;27;20472;-81
2021/09/27 02:59:38;;;;;;;8.50;5.25;;;;;;;7.75;100.00;93334.88;2134548;27;20019;-80
2021/09/27 03:00:58;;;;;;;7.20;5.47;;;;;;;7.68;100.00;93335.69;2139152;27;20536;-81
2021/09/27 03:02:15;;;;;;;6.95;5.30;;;;;;;7.68;100.00;93334.91;2123852;27;20114;-77
2021/09/27 03:03:26;;;;;;;9.55;5.60;;;;;;;7.65;100.00;93333.06;2115140;28;20078;-80
2021/09/27 03:04:43;;;;;;;7.28;5.68;;;;;;;7.62;100.00;93337.25;2114264;28;20464;-79
2021/09/27 03:06:02;;;;;;;5.82;5.32;;;;;;;7.61;100.00;93334.97;2108980;28;20028;-80
2021/09/27 03:07:09;;;;;;;6.47;4.53;;;;;;;7.58;100.00;93339.91;2106104;28;20548;-80
2021/09/27 03:08:44;;;;;;;5.13;4.63;;;;;;;7.72;100.00;93332.97;2105964;28;20877;-80
2021/09/27 03:09:54;;;;;;;7.43;5.03;;;;;;;7.71;100.00;93328.81;2117651;28;20122;-80
2021/09/27 03:11:13;;;;;;;6.80;4.90;;;;;;;7.64;100.00;93331.50;2114180;28;20111;-79
2021/09/27 03:12:36;;;;;;;6.75;5.22;;;;;;;7.56;100.00;93334.25;2126667;27;20031;-79
2021/09/27 03:13:55;;;;;;;10.88;5.00;;;;;;;7.50;100.00;93322.50;2121453;27;20085;-80
2021/09/27 03:15:17;;;;;;;7.30;4.82;;;;;;;7.48;100.00;93324.03;2121336;28;20047;-80
2021/09/27 03:16:25;;;;;;;5.00;4.55;;;;;;;7.46;100.00;93324.44;2124299;27;20153;-81
2021/09/27 03:17:53;;;;;;;9.02;5.32;;;;;;;7.31;100.00;93328.31;2130417;27;20011;-80
2021/09/27 03:19:10;;;;;;;15.23;4.93;;;;;;;7.36;100.00;93319.94;2109273;28;20028;-81
2021/09/27 03:20:38;;;;;;;6.10;5.13;;;;;;;7.43;100.00;93324.47;2120376;27;20380;-80
2021/09/27 03:22:13;;;;;;;6.75;4.80;;;;;;;7.62;100.00;93321.28;2132813;27;20022;-79
2021/09/27 03:23:35;;;;;;;6.35;4.63;;;;;;;7.56;100.00;93317.53;2129336;27;20023;-81
2021/09/27 03:25:13;;;;;;;9.48;5.05;;;;;;;7.43;100.00;93319.13;2107193;28;20023;-82
2021/09/27 03:26:52;;;;;;;5.68;5.15;;;;;;;7.50;100.00;93314.50;2113237;27;20023;-79
2021/09/27 03:28:20;;;;;;;6.35;5.13;;;;;;;7.50;100.00;93311.09;2093598;28;20539;-80
2021/09/27 03:29:41;;;;;;;6.82;5.13;;;;;;;7.80;100.00;93315.81;2092857;28;20394;-78
2021/09/27 03:31:16;;;;;;;6.38;4.82;;;;;;;7.66;100.00;93310.63;2121652;27;20046;-79
2021/09/27 03:32:46;;;;;;;5.68;5.13;;;;;;;7.62;100.00;93307.22;2125762;27;20018;-79
2021/09/27 03:34:11;;;;;;;8.85;4.57;;;;;;;7.60;100.00;93312.94;2123299;27;20027;-81
2021/09/27 03:35:23;;;;;;;6.55;4.85;;;;;;;7.64;100.00;93316.34;2115559;28;20982;-81
2021/09/27 03:36:33;;;;;;;5.90;4.85;;;;;;;7.67;100.00;93314.78;2125400;27;20609;-80
2021/09/27 03:37:52;;;;;;;6.18;5.10;;;;;;;7.68;100.00;93306.44;2133033;27;20022;-80
2021/09/27 03:39:15;;;;;;;5.97;5.18;;;;;;;7.74;100.00;93309.41;2123943;27;20051;-79
2021/09/27 03:40:53;;;;;;;9.45;4.85;;;;;;;7.62;100.00;93310.63;2122350;27;20380;-80
2021/09/27 03:42:12;;;;;;;5.18;4.32;;;;;;;7.65;100.00;93306.44;2117248;27;20058;-81
2021/09/27 03:43:22;;;;;;;6.30;4.80;;;;;;;7.62;100.00;93312.53;2122017;27;20565;-81
2021/09/27 03:44:46;;;;;;;6.28;5.13;;;;;;;7.56;100.00;93307.66;2121320;27;20034;-78
2021/09/27 03:45:55;;;;;;;5.25;4.32;;;;;;;7.57;100.00;93314.47;2110941;27;20114;-80
2021/09/27 03:47:18;;;;;;;5.53;5.00;;;;;;;7.49;100.00;93313.00;2108220;28;20024;-80
2021/09/27 03:48:34;;;;;;;6.50;4.57;;;;;;;7.54;100.00;93315.25;2116930;27;20023;-82
2021/09/27 03:49:53;;;;;;;7.80;4.72;;;;;;;7.43;100.00;93303.19;2128061;27;20097;-78
2021/09/27 03:51:10;;;;;;;5.50;4.28;;;;;;;7.51;100.00;93307.31;2130068;27;20424;-80
2021/09/27 03:52:20;;;;;;;5.82;4.20;;;;;;;7.40;100.00;93307.38;2119445;27;20027;-79
2021/09/27 03:53:30;;;;;;;4.72;4.32;;;;;;;7.43;100.00;93311.91;2110954;28;20024;-83
2021/09/27 03:54:55;;;;;;;4.63;3.88;;;;;;;7.37;100.00;93312.72;2123652;27;20027;-78
2021/09/27 03:56:07;;;;;;;4.82;3.72;;;;;;;7.42;100.00;93313.06;2117289;27;20027;-81
2021/09/27 03:57:15;;;;;;;5.30;4.35;;;;;;;7.42;100.00;93309.63;2113161;28;20027;-79
2021/09/27 03:58:28;;;;;;;5.97;3.80;;;;;;;7.34;100.00;93308.94;2107836;28;20515;-81
2021/09/27 04:00:11;;;;;;;5.22;3.95;;;;;;;7.25;100.00;93312.03;2114997;27;20023;-79
2021/09/27 04:01:26;;;;;;;3.65;3.33;;;;;;;7.32;100.00;93313.88;2098836;28;20567;-80
2021/09/27 04:02:51;;;;;;;3.92;3.53;;;;;;;7.35;100.00;93310.44;2108423;27;20497;-81
2021/09/27 04:04:01;;;;;;;3.78;3.47;;;;;;;7.35;100.00;93312.34;2120416;27;20099;-79
2021/09/27 04:05:27;;;;;;;4.03;3.72;;;;;;;7.32;100.00;93306.66;2120563;27;20046;-82
2021/09/27 04:06:57;;;;;;;3.88;3.58;;;;;;;7.31;100.00;93307.06;2114328;28;20391;-81
2021/09/27 04:08:07;;;;;;;3.92;3.53;;;;;;;7.18;100.00;93314.72;2113008;27;20039;-82
2021/09/27 04:09:26;;;;;;;;;;;;;;;7.20;100.00;93312.44;2123112;27;20106;-80
2021/09/27 04:10:35;;;;;;;4.38;3.38;;;;;;;7.34;100.00;93300.97;2132864;27;19918;-79
2021/09/27 04:11:39;;;;;;;4.10;3.80;;;;;;;7.26;100.00;93300.25;2115880;27;20051;-79
2021/09/27 04:12:53;;;;;;;5.15;4.05;;;;;;;7.23;100.00;93309.00;2107024;28;20038;-81
2021/09/27 04:14:20;;;;;;;4.85;3.72;;;;;;;7.34;100.00;93306.28;2110405;27;20035;-79
2021/09/27 04:15:41;;;;;;;3.80;3.42;;;;;;;7.33;100.00;93304.75;2118781;27;20019;-78
2021/09/27 04:17:04;;;;;;;6.00;3.75;;;;;;;7.25;100.00;93298.75;2117962;27;20012;-79
2021/09/27 04:18:24;;;;;;;4.55;3.50;;;;;;;7.21;100.00;93299.91;2123617;27;20101;-79
2021/09/27 04:19:58;;;;;;;4.95;4.20;;;;;;;7.21;100.00;93291.94;2124323;27;20023;-82
2021/09/27 04:21:09;;;;;;;3.95;3.65;;;;;;;7.18;100.00;93292.69;2121269;27;20034;-81
2021/09/27 04:22:39;;;;;;;5.60;4.10;;;;;;;7.25;100.00;93298.75;2127585;27;20058;-81
2021/09/27 04:24:08;;;;;;;4.53;3.58;;;;;;;7.22;100.00;93291.53;2114972;28;20016;-81
2021/09/27 04:25:35;;;;;;;4.80;4.40;;;;;;;7.24;100.00;93296.44;2105973;28;20114;-81
2021/09/27 04:27:00;;;;;;;4.38;3.97;;;;;;;7.22;100.00;93293.44;2114219;28;20552;-79
2021/09/27 04:28:28;;;;;;;6.25;4.05;;;;;;;7.17;100.00;93291.19;2112599;27;20035;-81
2021/09/27 04:29:53;;;;;;;5.13;3.97;;;;;;;7.09;100.00;93300.34;2111989;28;20387;-82
2021/09/27 04:31:06;;;;;;;6.63;4.15;;;;;;;7.12;100.00;93299.59;2110872;27;20084;-80
2021/09/27 04:32:12;;;;;;;4.57;3.40;;;;;;;7.18;100.00;93303.34;2124927;27;20031;-79
2021/09/27 04:33:55;;;;;;;4.85;3.60;;;;;;;7.14;100.00;93299.94;2132000;27;20019;-79
2021/09/27 04:35:05;;;;;;;7.60;4.07;;;;;;;7.16;100.00;93301.06;2106807;28;20040;-82
2021/09/27 04:36:22;;;;;;;5.72;3.75;;;;;;;7.01;100.00;93307.59;2107823;28;20024;-79
2021/09/27 04:37:24;;;;;;;4.80;3.53;;;;;;;7.01;100.00;93307.59;2114821;27;20031;-82
2021/09/27 04:38:27;;;;;;;4.20;3.80;;;;;;;6.92;100.00;93310.69;2117191;27;20023;-78
2021/09/27 04:39:32;;;;;;;8.23;4.30;;;;;;;6.92;100.00;93307.25;2130633;27;20088;-81
2021/09/27 04:40:54;;;;;;;4.85;3.50;;;;;;;7.03;100.00;93300.75;2107547;28;20024;-80
2021/09/27 04:42:14;;;;;;;5.82;4.05;;;;;;;7.09;100.00;93303.00;2100877;28;20039;-79
2021/09/27 04:43:47;;;;;;;6.57;3.70;;;;;;;7.06;100.00;93304.53;2116342;27;20049;-80
2021/09/27 04:44:51;;;;;;;4.32;3.35;;;;;;;7.04;100.00;93298.84;2106068;27;20031;-78
2021/09/27 04:45:59;;;;;;;3.85;3.45;;;;;;;7.03;100.00;93303.41;2121795;27;20057;-79
2021/09/27 04:47:17;;;;;;;5.68;3.28;;;;;;;6.91;100.00;93295.88;2110052;27;20024;-81
2021/09/27 04:48:38;;;;;;;4.50;3.15;;;;;;;6.84;100.00;93300.47;2120680;27;20020;-79
2021/09/27 04:49:55;;;;;;;3.80;3.38;;;;;;;6.84;100.00;93301.22;2132310;27;20515;-80
2021/09/27 04:51:02;;;;;;;3.67;3.15;;;;;;;6.99;100.00;93294.72;2122299;27;20019;-80
2021/09/27 04:52:36;;;;;;;5.22;3.63;;;;;;;7.02;100.00;93299.25;2112583;28;20448;-80
2021/09/27 04:54:13;;;;;;;3.83;3.45;;;;;;;6.98;100.00;93300.38;2118677;27;20072;-77
2021/09/27 04:55:21;;;;;;;3.30;3.00;;;;;;;6.84;100.00;93301.22;2119185;27;20118;-79
2021/09/27 04:56:44;;;;;;;5.60;3.40;;;;;;;6.88;100.00;93315.25;2118550;27;20089;-79
2021/09/27 04:58:19;;;;;;;7.20;3.40;;;;;;;6.89;100.00;93306.16;2126216;27;20079;-81
2021/09/27 04:59:38;;;;;;;3.75;3.25;;;;;;;6.94;100.00;93305.75;2119145;27;20571;-81
2021/09/27 05:01:23;;;;;;;3.55;3.10;;;;;;;6.98;100.00;93298.53;2113968;27;20034;-81
2021/09/27 05:02:40;;;;;;;5.75;3.00;;;;;;;7.06;100.00;93307.94;2096879;27;20114;-82
2021/09/27 05:03:59;;;;;;;5.45;3.17;;;;;;;7.07;100.00;93298.84;2113948;28;20063;-80
2021/09/27 05:05:09;;;;;;;13.30;3.38;;;;;;;7.02;100.00;93298.47;2108042;28;20518;-78
2021/09/27 05:06:43;;;;;;;3.25;2.97;;;;;;;7.04;100.00;93299.59;2102864;28;20031;-80
2021/09/27 05:08:07;;;;;;;4.45;3.15;;;;;;;6.90;100.00;93306.91;2091021;28;20780;-79
2021/09/27 05:09:18;;;;;;;3.72;2.63;;;;;;;6.81;100.00;93305.44;2116170;27;20053;-79
2021/09/27 05:10:35;;;;;;;3.28;2.63;;;;;;;6.89;100.00;93302.72;2119440;27;20555;-80
2021/09/27 05:12:05;;;;;;;2.97;2.67;;;;;;;6.78;100.00;93305.44;2108906;28;20035;-79
2021/09/27 05:13:26;;;;;;;3.08;2.70;;;;;;;6.90;100.00;93307.66;2108920;27;20035;-79
2021/09/27 05:15:10;;;;;;;2.55;2.35;;;;;;;6.86;100.00;93309.56;2111137;28;20024;-81
2021/09/27 05:16:22;;;;;;;4.18;2.22;;;;;;;6.77;100.00;93307.34;2116164;27;20058;-81
2021/09/27 05:17:42;;;;;;;2.22;2.13;;;;;;;6.77;100.00;93306.59;2109979;28;20377;-80
2021/09/27 05:19:18;;;;;;;2.03;1.92;;;;;;;6.80;100.00;93314.53;2114599;28;20023;-81
2021/09/27 05:20:53;;;;;;;4.00;2.13;;;;;;;6.78;100.00;93305.44;2123765;27;20045;-82
2021/09/27 05:22:06;;;;;;;2.22;2.05;;;;;;;6.79;100.00;93304.28;2103371;28;20066;-80
2021/09/27 05:23:40;;;;;;;3.90;2.10;;;;;;;6.74;100.00;93304.69;2124299;27;20046;-82
2021/09/27 05:24:52;;;;;;;2.13;2.00;;;;;;;6.66;100.00;93306.63;2114325;28;20684;-80
2021/09/27 05:26:02;;;;;;;2.00;1.90;;;;;;;6.75;100.00;93314.16;2105730;28;20055;-80
2021/09/27 05:27:40;;;;;;;2.90;2.13;;;;;;;6.76;100.00;93315.69;2102978;27;20720;-79
2021/09/27 05:29:00;;;;;;;2.22;2.10;;;;;;;6.69;100.00;93302.44;2119304;27;20036;-81
2021/09/27 05:30:23;;;;;;;4.78;2.42;;;;;;;6.71;100.00;93305.47;2115504;27;20054;-80
2021/09/27 05:31:47;;;;;;;2.42;2.20;;;;;;;6.76;100.00;93305.84;2115129;27;20038;-80
2021/09/27 05:33:30;;;;;;;4.15;2.30;;;;;;;6.68;100.00;93303.59;2109778;27;20024;-79
2021/09/27 05:34:46;;;;;;;2.85;2.65;;;;;;;6.82;100.00;93311.50;2104273;27;20369;-79
2021/09/27 05:36:02;;;;;;;2.40;2.20;;;;;;;6.73;100.00;93308.50;2116236;27;20038;-79
2021/09/27 05:37:11;;;;;;;6.85;2.80;;;;;;;6.69;100.00;93311.16;2124730;27;20560;-80
2021/09/27 05:38:33;;;;;;;2.20;2.10;;;;;;;6.73;100.00;93305.84;2118317;27;20031;-80
2021/09/27 05:40:05;;;;;;;2.85;2.35;;;;;;;6.78;100.00;93303.53;2113142;28;20110;-80
2021/09/27 05:41:43;;;;;;;3.58;2.70;;;;;;;6.74;100.00;93302.78;2113424;27;20082;-80
2021/09/27 05:42:47;;;;;;;2.30;2.10;;;;;;;6.73;100.00;93303.19;2102273;28;20059;-81
2021/09/27 05:43:56;;;;;;;2.97;2.63;;;;;;;6.76;100.00;93305.84;2107263;27;20598;-80
2021/09/27 05:45:25;;;;;;;7.35;3.28;;;;;;;6.70;100.00;93301.28;2111823;28;20055;-80
2021/09/27 05:46:35;;;;;;;2.70;2.50;;;;;;;6.74;100.00;93310.00;2117083;27;20059;-79
2021/09/27 05:47:54;;;;;;;4.57;2.95;;;;;;;6.78;100.00;93311.50;2129549;27;20059;-80
2021/09/27 05:49:16;;;;;;;4.10;2.55;;;;;;;6.74;100.00;93308.09;2109357;28;20040;-79
2021/09/27 05:50:31;;;;;;;3.53;2.10;;;;;;;6.79;100.00;93309.59;2107670;27;20026;-80
2021/09/27 05:51:47;;;;;;;2.70;2.50;;;;;;;6.79;100.00;93314.91;2123166;27;20027;-81
2021/09/27 05:53:09;;;;;;;2.88;2.60;;;;;;;6.68;100.00;93311.56;2130165;27;20023;-80
2021/09/27 05:54:37;;;;;;;3.45;2.42;;;;;;;6.80;100.00;93306.56;2126784;27;20029;-77
2021/09/27 05:55:48;;;;;;;2.67;2.20;;;;;;;6.73;100.00;93301.28;2118360;27;20174;-81
2021/09/27 05:56:57;;;;;;;6.10;2.75;;;;;;;6.78;100.00;93308.84;2110883;28;20027;-82
2021/09/27 05:58:15;;;;;;;2.60;2.40;;;;;;;6.98;100.00;93298.53;2108352;27;20024;-83
2021/09/27 05:59:53;;;;;;;3.17;2.88;;;;;;;6.99;100.00;93315.97;2120097;27;20774;-81
2021/09/27 06:01:53;;;;;;;3.17;2.88;;;;;;;7.01;100.00;93303.03;2115757;27;20127;-81
2021/09/27 06:03:27;;;;;;;3.10;2.80;;;;;;;6.98;100.00;93306.50;2115694;27;20039;-80